sensor_id;sensor_type;location;lat;lon;timestamp;pressure;altitude;pressure_sealevel;temperature;humidity
13968;BME280;39536;52.198;9.920;2022-07-03T00:01:28;100844.09;;;22.56;51.29
13968;BME280;39536;52.198;9.920;2022-07-03T00:03:54;100841.09;;;22.50;52.07
13968;BME280;39536;52.198;9.920;2022-07-03T00:06:24;100849.16;;;21.66;54.61
13968;BME280;39536;52.198;9.920;2022-07-03T00:08:51;100852.91;;;21.14;56.51
13968;BME280;39536;52.198;9.920;2022-07-03T00:11:17;100851.47;;;21.10;57.07
13968;BME280;39536;52.198;9.920;2022-07-03T00:13:44;100846.94;;;20.87;58.45
13968;BME280;39536;52.198;9.920;2022-07-03T00:16:10;100848.75;;;20.73;59.31
13968;BME280;39536;52.198;9.920;2022-07-03T00:18:37;100839.88;;;20.87;59.51
13968;BME280;39536;52.198;9.920;2022-07-03T00:21:07;100833.78;;;20.98;59.09
13968;BME280;39536;52.198;9.920;2022-07-03T00:23:52;100832.59;;;21.02;59.25
13968;BME280;39536;52.198;9.920;2022-07-03T00:26:20;100824.34;;;21.07;59.17
13968;BME280;39536;52.198;9.920;2022-07-03T00:28:47;100833.66;;;20.99;59.18
13968;BME280;39536;52.198;9.920;2022-07-03T00:31:14;100825.63;;;21.01;58.94
13968;BME280;39536;52.198;9.920;2022-07-03T00:33:41;100823.28;;;21.09;58.30
13968;BME280;39536;52.198;9.920;2022-07-03T00:36:08;100821.69;;;21.07;58.06
13968;BME280;39536;52.198;9.920;2022-07-03T00:38:36;100821.38;;;20.98;58.81
13968;BME280;39536;52.198;9.920;2022-07-03T00:41:03;100818.00;;;20.96;58.85
13968;BME280;39536;52.198;9.920;2022-07-03T00:43:30;100814.91;;;21.03;58.91
13968;BME280;39536;52.198;9.920;2022-07-03T00:46:06;100819.69;;;20.97;59.12
13968;BME280;39536;52.198;9.920;2022-07-03T00:48:36;100813.13;;;21.03;59.24
13968;BME280;39536;52.198;9.920;2022-07-03T00:51:05;100809.28;;;21.07;58.92
13968;BME280;39536;52.198;9.920;2022-07-03T00:53:37;100821.03;;;21.16;58.67
13968;BME280;39536;52.198;9.920;2022-07-03T00:56:08;100819.22;;;21.16;58.55
13968;BME280;39536;52.198;9.920;2022-07-03T00:58:37;100819.84;;;21.20;56.88
13968;BME280;39536;52.198;9.920;2022-07-03T01:01:04;100817.31;;;21.18;55.69
13968;BME280;39536;52.198;9.920;2022-07-03T01:03:32;100811.78;;;21.21;54.99
13968;BME280;39536;52.198;9.920;2022-07-03T01:06:03;100819.84;;;21.20;55.12
13968;BME280;39536;52.198;9.920;2022-07-03T01:08:34;100811.59;;;21.12;55.35
13968;BME280;39536;52.198;9.920;2022-07-03T01:11:09;100818.19;;;21.06;55.61
13968;BME280;39536;52.198;9.920;2022-07-03T01:13:41;100814.59;;;21.07;55.53
13968;BME280;39536;52.198;9.920;2022-07-03T01:16:17;100820.72;;;21.08;55.46
13968;BME280;39536;52.198;9.920;2022-07-03T01:18:49;100813.34;;;21.00;55.88
13968;BME280;39536;52.198;9.920;2022-07-03T01:21:25;100812.84;;;20.82;57.09
13968;BME280;39536;52.198;9.920;2022-07-03T01:24:16;100806.78;;;20.93;56.65
13968;BME280;39536;52.198;9.920;2022-07-03T01:26:47;100810.91;;;20.97;56.35
13968;BME280;39536;52.198;9.920;2022-07-03T01:29:18;100808.28;;;20.97;57.32
13968;BME280;39536;52.198;9.920;2022-07-03T01:31:48;100803.94;;;20.83;58.12
13968;BME280;39536;52.198;9.920;2022-07-03T01:34:19;100805.44;;;20.87;58.35
13968;BME280;39536;52.198;9.920;2022-07-03T01:36:47;100799.91;;;20.90;58.55
13968;BME280;39536;52.198;9.920;2022-07-03T01:39:16;100796.31;;;20.91;59.37
13968;BME280;39536;52.198;9.920;2022-07-03T01:41:47;100794.34;;;20.69;60.33
13968;BME280;39536;52.198;9.920;2022-07-03T01:44:16;100798.34;;;20.49;60.80
13968;BME280;39536;52.198;9.920;2022-07-03T01:46:44;100794.88;;;20.36;61.51
13968;BME280;39536;52.198;9.920;2022-07-03T01:49:13;100789.91;;;20.32;61.36
13968;BME280;39536;52.198;9.920;2022-07-03T01:51:41;100784.00;;;20.28;61.46
13968;BME280;39536;52.198;9.920;2022-07-03T01:54:09;100782.50;;;20.24;61.37
13968;BME280;39536;52.198;9.920;2022-07-03T01:56:36;100788.84;;;20.21;61.50
13968;BME280;39536;52.198;9.920;2022-07-03T01:59:04;100787.28;;;20.19;61.44
13968;BME280;39536;52.198;9.920;2022-07-03T02:01:36;100774.69;;;20.22;61.49
13968;BME280;39536;52.198;9.920;2022-07-03T02:04:14;100771.91;;;20.24;61.19
13968;BME280;39536;52.198;9.920;2022-07-03T02:06:49;100772.13;;;20.21;61.24
13968;BME280;39536;52.198;9.920;2022-07-03T02:09:18;100769.03;;;20.27;61.44
13968;BME280;39536;52.198;9.920;2022-07-03T02:11:51;100777.84;;;20.15;61.50
13968;BME280;39536;52.198;9.920;2022-07-03T02:14:21;100772.13;;;20.08;61.55
13968;BME280;39536;52.198;9.920;2022-07-03T02:17:02;100777.31;;;20.10;61.52
13968;BME280;39536;52.198;9.920;2022-07-03T02:19:36;100771.56;;;20.03;61.37
13968;BME280;39536;52.198;9.920;2022-07-03T02:22:07;100776.03;;;20.02;61.54
13968;BME280;39536;52.198;9.920;2022-07-03T02:24:41;100775.59;;;19.96;61.31
13968;BME280;39536;52.198;9.920;2022-07-03T02:27:15;100770.31;;;19.96;61.45
13968;BME280;39536;52.198;9.920;2022-07-03T02:29:49;100775.19;;;20.02;61.10
13968;BME280;39536;52.198;9.920;2022-07-03T02:32:19;100771.38;;;20.06;60.88
13968;BME280;39536;52.198;9.920;2022-07-03T02:34:51;100765.16;;;20.07;60.63
13968;BME280;39536;52.198;9.920;2022-07-03T02:37:19;100772.13;;;20.08;60.56
13968;BME280;39536;52.198;9.920;2022-07-03T02:39:51;100764.81;;;20.12;60.61
13968;BME280;39536;52.198;9.920;2022-07-03T02:42:25;100759.03;;;20.06;60.40
13968;BME280;39536;52.198;9.920;2022-07-03T02:44:57;100754.66;;;20.05;60.23
13968;BME280;39536;52.198;9.920;2022-07-03T02:47:30;100758.28;;;20.04;59.84
13968;BME280;39536;52.198;9.920;2022-07-03T02:50:03;100763.00;;;19.99;60.04
13968;BME280;39536;52.198;9.920;2022-07-03T02:52:34;100759.84;;;20.07;59.80
13968;BME280;39536;52.198;9.920;2022-07-03T02:55:11;100767.47;;;19.99;59.55
13968;BME280;39536;52.198;9.920;2022-07-03T02:57:44;100769.47;;;20.08;59.09
13968;BME280;39536;52.198;9.920;2022-07-03T03:00:12;100765.44;;;20.15;59.13
13968;BME280;39536;52.198;9.920;2022-07-03T03:02:51;100758.16;;;20.06;59.26
13968;BME280;39536;52.198;9.920;2022-07-03T03:05:24;100763.69;;;20.16;58.97
13968;BME280;39536;52.198;9.920;2022-07-03T03:08:10;100759.66;;;20.23;58.14
13968;BME280;39536;52.198;9.920;2022-07-03T03:10:38;100763.75;;;20.01;60.08
13968;BME280;39536;52.198;9.920;2022-07-03T03:13:07;100768.72;;;19.80;60.91
13968;BME280;39536;52.198;9.920;2022-07-03T03:15:36;100761.31;;;19.86;61.24
13968;BME280;39536;52.198;9.920;2022-07-03T03:18:05;100759.53;;;19.86;61.41
13968;BME280;39536;52.198;9.920;2022-07-03T03:20:33;100761.53;;;19.95;60.68
13968;BME280;39536;52.198;9.920;2022-07-03T03:23:17;100750.53;;;20.01;60.93
13968;BME280;39536;52.198;9.920;2022-07-03T03:25:44;100754.16;;;20.00;61.34
13968;BME280;39536;52.198;9.920;2022-07-03T03:28:12;100752.84;;;20.06;61.26
13968;BME280;39536;52.198;9.920;2022-07-03T03:30:40;100751.16;;;20.05;60.74
13968;BME280;39536;52.198;9.920;2022-07-03T03:33:07;100757.72;;;19.99;61.04
13968;BME280;39536;52.198;9.920;2022-07-03T03:35:35;100751.94;;;19.94;61.07
13968;BME280;39536;52.198;9.920;2022-07-03T03:38:02;100747.91;;;19.89;61.31
13968;BME280;39536;52.198;9.920;2022-07-03T03:40:28;100751.38;;;19.89;61.70
13968;BME280;39536;52.198;9.920;2022-07-03T03:42:55;100751.28;;;19.91;61.60
13968;BME280;39536;52.198;9.920;2022-07-03T03:45:21;100747.56;;;19.93;61.28
13968;BME280;39536;52.198;9.920;2022-07-03T03:47:49;100749.78;;;19.99;59.34
13968;BME280;39536;52.198;9.920;2022-07-03T03:50:16;100743.88;;;20.08;57.81
13968;BME280;39536;52.198;9.920;2022-07-03T03:52:42;100746.72;;;20.31;55.70
13968;BME280;39536;52.198;9.920;2022-07-03T03:55:09;100740.78;;;20.40;55.53
13968;BME280;39536;52.198;9.920;2022-07-03T03:57:36;100744.69;;;20.47;57.42
13968;BME280;39536;52.198;9.920;2022-07-03T04:00:03;100743.53;;;20.51;56.34
13968;BME280;39536;52.198;9.920;2022-07-03T04:02:30;100736.13;;;20.57;55.11
13968;BME280;39536;52.198;9.920;2022-07-03T04:04:58;100737.72;;;20.59;55.07
13968;BME280;39536;52.198;9.920;2022-07-03T04:07:25;100730.19;;;20.66;54.70
13968;BME280;39536;52.198;9.920;2022-07-03T04:09:51;100732.28;;;20.73;54.58
13968;BME280;39536;52.198;9.920;2022-07-03T04:12:17;100736.38;;;20.90;54.22
13968;BME280;39536;52.198;9.920;2022-07-03T04:14:44;100728.91;;;20.95;53.68
13968;BME280;39536;52.198;9.920;2022-07-03T04:17:10;100734.91;;;21.10;53.43
13968;BME280;39536;52.198;9.920;2022-07-03T04:19:37;100724.06;;;21.13;53.08
13968;BME280;39536;52.198;9.920;2022-07-03T04:22:05;100729.47;;;21.12;52.91
13968;BME280;39536;52.198;9.920;2022-07-03T04:24:33;100728.41;;;21.14;53.22
13968;BME280;39536;52.198;9.920;2022-07-03T04:27:00;100727.00;;;21.21;52.97
13968;BME280;39536;52.198;9.920;2022-07-03T04:29:26;100722.72;;;21.32;52.92
13968;BME280;39536;52.198;9.920;2022-07-03T04:31:53;100723.00;;;21.40;52.42
13968;BME280;39536;52.198;9.920;2022-07-03T04:34:19;100730.63;;;21.44;52.43
13968;BME280;39536;52.198;9.920;2022-07-03T04:36:46;100716.91;;;21.51;52.22
13968;BME280;39536;52.198;9.920;2022-07-03T04:39:13;100720.75;;;21.58;52.03
13968;BME280;39536;52.198;9.920;2022-07-03T04:41:40;100727.50;;;21.62;51.64
13968;BME280;39536;52.198;9.920;2022-07-03T04:44:06;100726.22;;;21.67;51.68
13968;BME280;39536;52.198;9.920;2022-07-03T04:46:32;100731.13;;;21.50;52.29
13968;BME280;39536;52.198;9.920;2022-07-03T04:48:59;100718.25;;;21.56;51.91
13968;BME280;39536;52.198;9.920;2022-07-03T04:51:25;100718.81;;;21.49;52.16
13968;BME280;39536;52.198;9.920;2022-07-03T04:53:52;100710.84;;;21.49;51.86
13968;BME280;39536;52.198;9.920;2022-07-03T04:56:20;100715.47;;;21.58;52.24
13968;BME280;39536;52.198;9.920;2022-07-03T04:58:47;100717.66;;;21.64;51.54
13968;BME280;39536;52.198;9.920;2022-07-03T05:01:13;100717.09;;;21.72;51.13
13968;BME280;39536;52.198;9.920;2022-07-03T05:03:39;100730.34;;;21.72;51.30
13968;BME280;39536;52.198;9.920;2022-07-03T05:06:06;100721.69;;;21.81;51.17
13968;BME280;39536;52.198;9.920;2022-07-03T05:08:32;100718.69;;;21.97;50.62
13968;BME280;39536;52.198;9.920;2022-07-03T05:10:59;100713.38;;;22.08;50.58
13968;BME280;39536;52.198;9.920;2022-07-03T05:13:27;100713.97;;;22.11;50.37
13968;BME280;39536;52.198;9.920;2022-07-03T05:15:53;100710.63;;;22.21;50.45
13968;BME280;39536;52.198;9.920;2022-07-03T05:18:20;100705.78;;;22.14;50.30
13968;BME280;39536;52.198;9.920;2022-07-03T05:20:46;100706.06;;;22.23;50.74
13968;BME280;39536;52.198;9.920;2022-07-03T05:23:13;100701.25;;;22.28;50.61
13968;BME280;39536;52.198;9.920;2022-07-03T05:25:39;100705.69;;;22.27;50.39
13968;BME280;39536;52.198;9.920;2022-07-03T05:30:33;100709.19;;;22.39;50.08
13968;BME280;39536;52.198;9.920;2022-07-03T05:33:00;100705.56;;;22.40;50.15
13968;BME280;39536;52.198;9.920;2022-07-03T05:35:26;100701.56;;;22.46;50.08
13968;BME280;39536;52.198;9.920;2022-07-03T05:37:52;100711.59;;;22.53;49.79
13968;BME280;39536;52.198;9.920;2022-07-03T05:40:19;100703.50;;;22.55;49.53
13968;BME280;39536;52.198;9.920;2022-07-03T05:42:45;100706.88;;;22.57;49.88
13968;BME280;39536;52.198;9.920;2022-07-03T05:45:12;100708.78;;;22.66;49.69
13968;BME280;39536;52.198;9.920;2022-07-03T05:47:40;100716.50;;;22.80;49.70
13968;BME280;39536;52.198;9.920;2022-07-03T05:50:07;100705.13;;;22.90;49.47
13968;BME280;39536;52.198;9.920;2022-07-03T05:52:34;100709.91;;;23.07;49.36
13968;BME280;39536;52.198;9.920;2022-07-03T05:55:00;100701.91;;;23.18;48.86
13968;BME280;39536;52.198;9.920;2022-07-03T05:57:27;100709.97;;;23.28;48.49
13968;BME280;39536;52.198;9.920;2022-07-03T05:59:53;100712.28;;;23.42;47.98
13968;BME280;39536;52.198;9.920;2022-07-03T06:02:20;100708.16;;;23.49;47.69
13968;BME280;39536;52.198;9.920;2022-07-03T06:04:47;100714.63;;;23.57;48.06
13968;BME280;39536;52.198;9.920;2022-07-03T06:07:14;100717.63;;;23.63;47.07
13968;BME280;39536;52.198;9.920;2022-07-03T06:09:41;100720.63;;;23.70;47.33
13968;BME280;39536;52.198;9.920;2022-07-03T06:12:08;100729.19;;;23.73;47.28
13968;BME280;39536;52.198;9.920;2022-07-03T06:14:35;100717.72;;;23.73;47.21
13968;BME280;39536;52.198;9.920;2022-07-03T06:17:01;100719.91;;;23.89;47.15
13968;BME280;39536;52.198;9.920;2022-07-03T06:19:28;100710.88;;;24.01;47.03
13968;BME280;39536;52.198;9.920;2022-07-03T06:21:56;100718.31;;;24.07;46.40
13968;BME280;39536;52.198;9.920;2022-07-03T06:24:23;100725.63;;;24.05;46.91
13968;BME280;39536;52.198;9.920;2022-07-03T06:26:49;100728.84;;;24.09;47.11
13968;BME280;39536;52.198;9.920;2022-07-03T06:29:16;100728.09;;;23.97;47.62
13968;BME280;39536;52.198;9.920;2022-07-03T06:31:42;100725.78;;;24.13;46.65
13968;BME280;39536;52.198;9.920;2022-07-03T06:34:09;100722.47;;;24.21;45.33
13968;BME280;39536;52.198;9.920;2022-07-03T06:36:36;100729.81;;;24.38;45.82
13968;BME280;39536;52.198;9.920;2022-07-03T06:39:05;100731.50;;;24.39;45.71
13968;BME280;39536;52.198;9.920;2022-07-03T06:41:31;100729.19;;;24.46;46.08
13968;BME280;39536;52.198;9.920;2022-07-03T06:43:58;100739.28;;;24.52;45.49
13968;BME280;39536;52.198;9.920;2022-07-03T06:46:24;100740.22;;;24.41;45.80
13968;BME280;39536;52.198;9.920;2022-07-03T06:48:51;100738.63;;;24.70;45.40
13968;BME280;39536;52.198;9.920;2022-07-03T06:51:17;100735.41;;;24.66;45.10
13968;BME280;39536;52.198;9.920;2022-07-03T06:53:44;100740.31;;;24.71;44.94
13968;BME280;39536;52.198;9.920;2022-07-03T06:56:12;100742.28;;;24.69;44.63
13968;BME280;39536;52.198;9.920;2022-07-03T06:58:39;100739.91;;;24.75;44.66
13968;BME280;39536;52.198;9.920;2022-07-03T07:01:05;100745.41;;;24.83;44.93
13968;BME280;39536;52.198;9.920;2022-07-03T07:03:32;100740.47;;;24.88;43.76
13968;BME280;39536;52.198;9.920;2022-07-03T07:05:59;100747.53;;;24.99;43.84
13968;BME280;39536;52.198;9.920;2022-07-03T07:08:25;100743.69;;;24.82;43.75
13968;BME280;39536;52.198;9.920;2022-07-03T07:10:52;100759.28;;;24.77;44.88
13968;BME280;39536;52.198;9.920;2022-07-03T07:13:20;100762.31;;;24.63;45.23
13968;BME280;39536;52.198;9.920;2022-07-03T07:15:46;100753.56;;;24.51;44.96
13968;BME280;39536;52.198;9.920;2022-07-03T07:18:13;100762.81;;;24.47;46.26
13968;BME280;39536;52.198;9.920;2022-07-03T07:20:39;100754.38;;;23.90;45.94
13968;BME280;39536;52.198;9.920;2022-07-03T07:23:06;100761.38;;;23.70;46.92
13968;BME280;39536;52.198;9.920;2022-07-03T07:25:32;100752.09;;;23.86;46.94
13968;BME280;39536;52.198;9.920;2022-07-03T07:27:59;100759.88;;;23.98;47.46
13968;BME280;39536;52.198;9.920;2022-07-03T07:30:27;100748.94;;;24.23;46.63
13968;BME280;39536;52.198;9.920;2022-07-03T07:32:54;100753.41;;;24.22;47.45
13968;BME280;39536;52.198;9.920;2022-07-03T07:35:20;100745.44;;;24.22;47.03
13968;BME280;39536;52.198;9.920;2022-07-03T07:37:47;100743.88;;;24.19;47.07
13968;BME280;39536;52.198;9.920;2022-07-03T07:40:14;100740.16;;;24.32;47.53
13968;BME280;39536;52.198;9.920;2022-07-03T07:42:40;100749.75;;;24.44;47.10
13968;BME280;39536;52.198;9.920;2022-07-03T07:45:08;100746.84;;;24.57;47.40
13968;BME280;39536;52.198;9.920;2022-07-03T07:47:36;100748.72;;;24.76;47.53
13968;BME280;39536;52.198;9.920;2022-07-03T07:50:04;100754.78;;;24.87;46.21
13968;BME280;39536;52.198;9.920;2022-07-03T07:52:31;100758.72;;;24.74;45.83
13968;BME280;39536;52.198;9.920;2022-07-03T07:54:57;100756.63;;;24.87;46.06
13968;BME280;39536;52.198;9.920;2022-07-03T07:57:24;100752.69;;;24.81;46.94
13968;BME280;39536;52.198;9.920;2022-07-03T07:59:51;100761.69;;;24.90;46.93
13968;BME280;39536;52.198;9.920;2022-07-03T08:02:17;100758.00;;;24.81;46.20
13968;BME280;39536;52.198;9.920;2022-07-03T08:05:11;100754.75;;;24.68;47.24
13968;BME280;39536;52.198;9.920;2022-07-03T08:07:55;100758.09;;;24.60;47.00
13968;BME280;39536;52.198;9.920;2022-07-03T08:10:24;100758.56;;;24.75;46.99
13968;BME280;39536;52.198;9.920;2022-07-03T08:12:50;100754.66;;;24.89;47.07
13968;BME280;39536;52.198;9.920;2022-07-03T08:15:17;100760.44;;;25.04;46.12
13968;BME280;39536;52.198;9.920;2022-07-03T08:17:43;100760.41;;;24.94;46.06
13968;BME280;39536;52.198;9.920;2022-07-03T08:20:12;100760.56;;;24.93;46.00
13968;BME280;39536;52.198;9.920;2022-07-03T08:22:38;100764.22;;;25.01;46.21
13968;BME280;39536;52.198;9.920;2022-07-03T08:25:05;100757.91;;;25.02;46.03
13968;BME280;39536;52.198;9.920;2022-07-03T08:27:31;100756.47;;;24.98;46.16
13968;BME280;39536;52.198;9.920;2022-07-03T08:29:58;100763.56;;;25.19;46.47
13968;BME280;39536;52.198;9.920;2022-07-03T08:32:25;100752.22;;;25.36;45.66
13968;BME280;39536;52.198;9.920;2022-07-03T08:34:51;100759.94;;;25.49;45.24
13968;BME280;39536;52.198;9.920;2022-07-03T08:37:19;100758.22;;;25.48;45.42
13968;BME280;39536;52.198;9.920;2022-07-03T08:39:46;100758.09;;;25.59;44.01
13968;BME280;39536;52.198;9.920;2022-07-03T08:42:14;100775.91;;;25.29;44.36
13968;BME280;39536;52.198;9.920;2022-07-03T08:44:43;100761.47;;;25.42;44.40
13968;BME280;39536;52.198;9.920;2022-07-03T08:47:12;100770.88;;;25.46;44.07
13968;BME280;39536;52.198;9.920;2022-07-03T08:49:39;100765.53;;;25.65;44.96
13968;BME280;39536;52.198;9.920;2022-07-03T08:52:08;100764.66;;;26.03;44.22
13968;BME280;39536;52.198;9.920;2022-07-03T08:54:37;100773.56;;;26.32;44.54
13968;BME280;39536;52.198;9.920;2022-07-03T08:57:05;100763.91;;;26.21;43.29
13968;BME280;39536;52.198;9.920;2022-07-03T08:59:36;100766.47;;;26.03;42.68
13968;BME280;39536;52.198;9.920;2022-07-03T09:02:03;100763.09;;;26.01;43.26
13968;BME280;39536;52.198;9.920;2022-07-03T09:04:30;100766.63;;;26.01;43.34
13968;BME280;39536;52.198;9.920;2022-07-03T09:06:58;100767.19;;;26.05;43.58
13968;BME280;39536;52.198;9.920;2022-07-03T09:09:25;100769.88;;;25.95;43.74
13968;BME280;39536;52.198;9.920;2022-07-03T09:11:53;100769.97;;;26.03;43.16
13968;BME280;39536;52.198;9.920;2022-07-03T09:14:20;100768.16;;;26.14;43.19
13968;BME280;39536;52.198;9.920;2022-07-03T09:16:47;100769.69;;;26.07;42.91
13968;BME280;39536;52.198;9.920;2022-07-03T09:19:14;100758.97;;;26.16;42.98
13968;BME280;39536;52.198;9.920;2022-07-03T09:21:42;100755.63;;;26.14;42.58
13968;BME280;39536;52.198;9.920;2022-07-03T09:24:09;100756.91;;;26.10;43.18
13968;BME280;39536;52.198;9.920;2022-07-03T09:26:49;100761.31;;;26.29;42.91
13968;BME280;39536;52.198;9.920;2022-07-03T09:29:18;100756.50;;;26.42;42.38
13968;BME280;39536;52.198;9.920;2022-07-03T09:31:53;100753.13;;;26.40;42.25
13968;BME280;39536;52.198;9.920;2022-07-03T09:34:21;100757.22;;;26.72;40.77
13968;BME280;39536;52.198;9.920;2022-07-03T09:36:50;100757.81;;;26.66;40.94
13968;BME280;39536;52.198;9.920;2022-07-03T09:39:19;100768.44;;;26.76;41.86
13968;BME280;39536;52.198;9.920;2022-07-03T09:41:57;100761.91;;;26.88;40.42
13968;BME280;39536;52.198;9.920;2022-07-03T09:44:36;100764.19;;;27.10;39.94
13968;BME280;39536;52.198;9.920;2022-07-03T09:47:21;100757.25;;;27.17;39.83
13968;BME280;39536;52.198;9.920;2022-07-03T09:49:51;100765.31;;;27.08;38.39
13968;BME280;39536;52.198;9.920;2022-07-03T09:52:30;100771.69;;;27.25;38.18
13968;BME280;39536;52.198;9.920;2022-07-03T09:54:58;100766.59;;;27.04;38.15
13968;BME280;39536;52.198;9.920;2022-07-03T09:57:27;100767.41;;;26.86;39.00
13968;BME280;39536;52.198;9.920;2022-07-03T10:00:10;100769.97;;;27.06;38.32
13968;BME280;39536;52.198;9.920;2022-07-03T10:02:51;100774.31;;;27.07;38.72
13968;BME280;39536;52.198;9.920;2022-07-03T10:05:18;100766.41;;;27.15;39.25
13968;BME280;39536;52.198;9.920;2022-07-03T10:07:53;100757.69;;;27.31;38.79
13968;BME280;39536;52.198;9.920;2022-07-03T10:10:20;100757.28;;;27.61;38.08
13968;BME280;39536;52.198;9.920;2022-07-03T10:12:48;100759.44;;;27.58;37.42
13968;BME280;39536;52.198;9.920;2022-07-03T10:15:18;100750.28;;;27.43;37.79
13968;BME280;39536;52.198;9.920;2022-07-03T10:17:47;100749.28;;;27.44;37.52
13968;BME280;39536;52.198;9.920;2022-07-03T10:20:15;100746.69;;;27.34;37.84
13968;BME280;39536;52.198;9.920;2022-07-03T10:22:45;100755.84;;;27.49;37.65
13968;BME280;39536;52.198;9.920;2022-07-03T10:25:13;100755.72;;;27.33;37.90
13968;BME280;39536;52.198;9.920;2022-07-03T10:27:40;100756.81;;;27.66;37.41
13968;BME280;39536;52.198;9.920;2022-07-03T10:30:08;100750.34;;;27.51;38.57
13968;BME280;39536;52.198;9.920;2022-07-03T10:32:37;100758.75;;;27.56;39.07
13968;BME280;39536;52.198;9.920;2022-07-03T10:35:06;100756.38;;;27.53;37.77
13968;BME280;39536;52.198;9.920;2022-07-03T10:37:41;100753.00;;;27.69;37.67
13968;BME280;39536;52.198;9.920;2022-07-03T10:40:14;100746.69;;;27.96;37.54
13968;BME280;39536;52.198;9.920;2022-07-03T10:43:09;100746.50;;;27.71;37.35
13968;BME280;39536;52.198;9.920;2022-07-03T10:46:10;100763.38;;;27.90;37.68
13968;BME280;39536;52.198;9.920;2022-07-03T10:48:58;100745.53;;;27.98;38.21
13968;BME280;39536;52.198;9.920;2022-07-03T10:51:26;100746.44;;;28.07;36.96
13968;BME280;39536;52.198;9.920;2022-07-03T10:54:12;100752.22;;;27.76;37.90
13968;BME280;39536;52.198;9.920;2022-07-03T10:57:07;100749.16;;;27.71;37.87
13968;BME280;39536;52.198;9.920;2022-07-03T11:00:00;100743.31;;;28.20;36.75
13968;BME280;39536;52.198;9.920;2022-07-03T11:02:33;100728.63;;;28.74;36.84
13968;BME280;39536;52.198;9.920;2022-07-03T11:05:10;100737.78;;;29.06;35.71
13968;BME280;39536;52.198;9.920;2022-07-03T11:07:43;100733.09;;;29.49;34.83
13968;BME280;39536;52.198;9.920;2022-07-03T11:10:29;100740.47;;;29.06;34.39
13968;BME280;39536;52.198;9.920;2022-07-03T11:12:56;100735.06;;;28.98;35.11
13968;BME280;39536;52.198;9.920;2022-07-03T11:15:27;100730.88;;;28.95;35.06
13968;BME280;39536;52.198;9.920;2022-07-03T11:18:13;100727.84;;;28.98;36.07
13968;BME280;39536;52.198;9.920;2022-07-03T11:26:33;100725.56;;;29.77;34.79
13968;BME280;39536;52.198;9.920;2022-07-03T11:28:59;100726.50;;;30.09;35.01
13968;BME280;39536;52.198;9.920;2022-07-03T11:31:26;100723.28;;;30.13;33.48
13968;BME280;39536;52.198;9.920;2022-07-03T11:33:57;100729.00;;;30.27;33.59
13968;BME280;39536;52.198;9.920;2022-07-03T11:36:26;100712.59;;;29.97;34.10
13968;BME280;39536;52.198;9.920;2022-07-03T11:39:03;100724.38;;;29.06;35.35
13968;BME280;39536;52.198;9.920;2022-07-03T11:41:41;100726.34;;;28.96;35.52
13968;BME280;39536;52.198;9.920;2022-07-03T11:44:09;100720.13;;;28.87;35.50
13968;BME280;39536;52.198;9.920;2022-07-03T11:46:38;100723.28;;;28.66;35.92
13968;BME280;39536;52.198;9.920;2022-07-03T11:49:05;100729.78;;;28.72;36.12
13968;BME280;39536;52.198;9.920;2022-07-03T11:51:34;100723.03;;;29.02;35.28
13968;BME280;39536;52.198;9.920;2022-07-03T11:54:02;100711.16;;;29.54;35.27
13968;BME280;39536;52.198;9.920;2022-07-03T11:56:29;100715.66;;;29.12;35.92
13968;BME280;39536;52.198;9.920;2022-07-03T11:58:57;100710.63;;;29.34;35.58
13968;BME280;39536;52.198;9.920;2022-07-03T12:01:29;100699.38;;;29.71;34.75
13968;BME280;39536;52.198;9.920;2022-07-03T12:04:05;100707.97;;;29.66;34.29
13968;BME280;39536;52.198;9.920;2022-07-03T12:06:37;100708.78;;;29.34;34.22
13968;BME280;39536;52.198;9.920;2022-07-03T12:09:12;100721.16;;;28.94;34.89
13968;BME280;39536;52.198;9.920;2022-07-03T12:11:39;100708.00;;;28.59;35.99
13968;BME280;39536;52.198;9.920;2022-07-03T12:14:06;100714.84;;;28.53;36.11
13968;BME280;39536;52.198;9.920;2022-07-03T12:16:33;100712.78;;;28.97;35.77
13968;BME280;39536;52.198;9.920;2022-07-03T12:19:03;100703.59;;;29.65;35.00
13968;BME280;39536;52.198;9.920;2022-07-03T12:21:37;100710.75;;;29.98;33.87
13968;BME280;39536;52.198;9.920;2022-07-03T12:24:09;100706.13;;;29.67;34.37
13968;BME280;39536;52.198;9.920;2022-07-03T12:26:36;100703.91;;;29.46;35.07
13968;BME280;39536;52.198;9.920;2022-07-03T12:29:05;100702.91;;;29.31;35.00
13968;BME280;39536;52.198;9.920;2022-07-03T12:31:32;100708.06;;;28.99;36.24
13968;BME280;39536;52.198;9.920;2022-07-03T12:36:30;100696.66;;;28.89;35.66
13968;BME280;39536;52.198;9.920;2022-07-03T12:38:59;100706.94;;;29.10;35.14
13968;BME280;39536;52.198;9.920;2022-07-03T12:41:26;100695.03;;;29.13;34.31
13968;BME280;39536;52.198;9.920;2022-07-03T12:43:54;100680.75;;;29.78;34.00
13968;BME280;39536;52.198;9.920;2022-07-03T12:46:22;100678.53;;;30.37;33.24
13968;BME280;39536;52.198;9.920;2022-07-03T12:48:51;100684.94;;;30.67;32.82
13968;BME280;39536;52.198;9.920;2022-07-03T12:51:35;100674.84;;;30.38;32.35
13968;BME280;39536;52.198;9.920;2022-07-03T12:54:05;100658.13;;;30.20;33.51
13968;BME280;39536;52.198;9.920;2022-07-03T12:56:31;100680.97;;;30.24;33.51
13968;BME280;39536;52.198;9.920;2022-07-03T12:58:58;100671.75;;;30.49;33.10
13968;BME280;39536;52.198;9.920;2022-07-03T13:01:42;100672.31;;;30.68;32.16
13968;BME280;39536;52.198;9.920;2022-07-03T13:04:10;100658.75;;;30.61;32.23
13968;BME280;39536;52.198;9.920;2022-07-03T13:06:39;100665.06;;;30.45;31.62
13968;BME280;39536;52.198;9.920;2022-07-03T13:09:08;100664.19;;;30.05;32.92
13968;BME280;39536;52.198;9.920;2022-07-03T13:11:35;100665.97;;;30.29;32.84
13968;BME280;39536;52.198;9.920;2022-07-03T13:14:04;100665.53;;;30.49;32.93